KTEB/TEB METAR and TAF weather

Enter ICAO airport designator
Station Type Date Time Source
KTEB METAR 2019/06/18 16:51 UTC NOAA

KTEB 181651Z 19006KT 7SM -RA BR OVC015 23/21 A2990 RMK AO2 RAB1556 SLP125 P0007 T02280206 $


Station Type Date Time Source
KTEB Decoded METAR 2019/06/18 16:51 UTC NOAA

TETERBORO AIRPORT, NJ, United States (KTEB) 40-52N 74-03W 7M
Jun 18, 2019 - 12:51 PM EDT / 2019.06.18 1651 UTC
Wind: from the S (190 degrees) at 7 MPH (6 KT):0
Visibility: 7 mile(s):0
Sky conditions: overcast
Weather: light rain; mist
Precipitation last hour: 0.07 inches
Temperature: 73.0 F (22.8 C)
Dew Point: 69.1 F (20.6 C)
Relative Humidity: 87%
Pressure (altimeter): 29.9 in. Hg (1012 hPa)
ob: KTEB 181651Z 19006KT 7SM -RA BR OVC015 23/21 A2990 RMK AO2 RAB1556 SLP125 P0007 T02280206
cycle: 17

Station Type Date Time Source
KTEB TAF 2019/06/18 14:18 UTC NOAA

TAF
AMD KTEB 181417Z 1814/1918 20005KT 2SM BR OVC005
TEMPO 1814/1815 3SM -SHRA BR
FM181600 08005KT 5SM -SHRA VCTS BKN010CB OVC030
FM182100 04005KT 3SM -SHRA VCTS BKN015CB OVC030
FM182300 VRB04KT 3SM BR BKN025
FM190200 VRB02KT 6SM BR VCSH OVC020

Example: see airport list